Time;durP1;ratioP1;P1;durP2;ratioP2;P2;SDS_P1;SDS_P2;PMS_P1;PMS_P2;Temp;Humidity;BMP_temperature;BMP_pressure;BME280_temperature;BME280_humidity;BME280_pressure;Samples;Min_cycle;Max_cycle;Signal;HPM_P1;HPM_P2
2022/11/02 00:01:00;;;;;;;2.45;2.35;;;10.60;99.90;;;;;;4637914;31;20113;-78
2022/11/02 00:03:27;;;;;;;0.10;0.10;;;10.60;99.90;;;;;;4634270;31;20132;-78
2022/11/02 00:05:58;;;;;;;0.10;0.10;;;10.80;99.90;;;;;;4635196;31;20079;-79
2022/11/02 00:08:25;;;;;;;0.10;0.10;;;10.50;99.90;;;;;;4638093;31;20035;-78
2022/11/02 00:11:03;;;;;;;3.38;3.13;;;10.50;99.90;;;;;;4641853;31;20043;-77
2022/11/02 00:13:29;;;;;;;0.57;0.57;;;10.50;99.90;;;;;;4641621;31;20043;-78
2022/11/02 00:15:55;;;;;;;0.10;0.10;;;10.60;99.90;;;;;;4636654;31;20023;-77
2022/11/02 00:18:25;;;;;;;0.10;0.10;;;10.60;99.90;;;;;;4638335;30;20054;-78
2022/11/02 00:20:51;;;;;;;5.45;5.15;;;10.50;99.90;;;;;;4628498;30;20283;-78
2022/11/02 00:23:17;;;;;;;0.10;0.10;;;10.50;99.90;;;;;;4634485;30;20234;-76
2022/11/02 00:25:49;;;;;;;0.10;0.10;;;10.60;99.90;;;;;;4674486;30;20022;-78
2022/11/02 00:28:15;;;;;;;0.10;0.10;;;10.50;99.90;;;;;;4673525;30;20042;-78
2022/11/02 00:30:44;;;;;;;0.10;0.10;;;10.50;99.90;;;;;;4675203;30;20126;-79
2022/11/02 00:33:10;;;;;;;0.20;0.20;;;10.40;99.90;;;;;;4673028;30;20025;-76
2022/11/02 00:35:36;;;;;;;0.10;0.10;;;10.30;99.90;;;;;;4727179;30;20036;-78
2022/11/02 00:38:02;;;;;;;0.75;0.75;;;10.30;99.90;;;;;;4726614;30;20016;-78
2022/11/02 00:40:28;;;;;;;0.10;0.10;;;10.30;99.90;;;;;;4742528;30;20037;-75
2022/11/02 00:42:57;;;;;;;0.60;0.60;;;10.20;99.90;;;;;;4741290;30;20063;-76
2022/11/02 00:45:27;;;;;;;0.10;0.10;;;10.10;99.90;;;;;;4741719;30;20045;-76
2022/11/02 00:47:53;;;;;;;0.10;0.10;;;10.10;99.90;;;;;;4740478;30;20054;-76
2022/11/02 00:50:18;;;;;;;0.10;0.10;;;10.00;99.90;;;;;;4740512;30;20021;-76
2022/11/02 00:52:45;;;;;;;0.10;0.10;;;10.00;99.90;;;;;;4740289;30;20056;-75
2022/11/02 00:55:11;;;;;;;0.00;0.00;;;10.00;99.90;;;;;;4724503;30;20043;-75
2022/11/02 00:57:39;;;;;;;0.28;0.28;;;9.90;99.90;;;;;;4739211;30;20029;-76
2022/11/02 01:00:22;;;;;;;0.10;0.10;;;9.90;99.90;;;;;;4725218;30;20055;-76
2022/11/02 01:02:50;;;;;;;0.10;0.10;;;10.00;99.90;;;;;;4741659;30;20529;-76
2022/11/02 01:05:16;;;;;;;0.08;0.08;;;10.00;99.90;;;;;;4741026;30;20036;-76
2022/11/02 01:07:43;;;;;;;0.30;0.30;;;9.90;99.90;;;;;;4749108;30;20035;-76
2022/11/02 01:10:10;;;;;;;0.10;0.10;;;10.00;99.90;;;;;;4749685;30;20036;-76
2022/11/02 01:12:37;;;;;;;0.10;0.10;;;10.00;99.90;;;;;;4745673;30;20047;-75
2022/11/02 01:15:05;;;;;;;0.03;0.03;;;9.90;99.90;;;;;;4747307;30;20032;-76
2022/11/02 01:17:30;;;;;;;0.22;0.22;;;9.90;99.90;;;;;;4743117;30;20064;-76
2022/11/02 01:19:56;;;;;;;0.10;0.10;;;9.90;99.90;;;;;;4725565;30;20044;-79
2022/11/02 01:22:28;;;;;;;0.10;0.10;;;9.90;99.90;;;;;;4743551;30;20575;-77
2022/11/02 01:24:54;;;;;;;1.73;1.65;;;9.90;99.90;;;;;;4741638;30;20036;-76
2022/11/02 01:27:20;;;;;;;13.90;13.10;;;9.90;99.90;;;;;;4728193;30;20025;-77
2022/11/02 01:29:46;;;;;;;0.15;0.15;;;9.90;99.90;;;;;;4741298;30;20110;-75
2022/11/02 01:32:12;;;;;;;0.08;0.08;;;10.00;99.90;;;;;;4741246;30;20068;-76
2022/11/02 01:34:38;;;;;;;0.10;0.10;;;10.00;99.90;;;;;;4724725;30;20032;-76
2022/11/02 01:37:06;;;;;;;0.00;0.00;;;9.90;99.90;;;;;;4723608;30;20058;-76
2022/11/02 01:39:32;;;;;;;0.08;0.08;;;9.90;99.90;;;;;;4725745;30;20134;-76
2022/11/02 01:41:58;;;;;;;0.10;0.10;;;9.90;99.90;;;;;;4739895;30;20045;-76
2022/11/02 01:44:39;;;;;;;3.63;3.42;;;9.90;99.90;;;;;;4727250;30;20035;-76
2022/11/02 01:47:21;;;;;;;1.05;0.95;;;9.80;99.90;;;;;;4740878;30;20028;-76
2022/11/02 01:49:55;;;;;;;0.10;0.10;;;9.80;99.90;;;;;;4745293;30;20040;-77
2022/11/02 01:52:26;;;;;;;0.10;0.10;;;9.80;99.90;;;;;;4742363;30;20084;-76
2022/11/02 01:55:06;;;;;;;0.00;0.00;;;9.80;99.90;;;;;;4742461;30;20720;-76
2022/11/02 01:57:34;;;;;;;0.03;0.03;;;9.80;99.90;;;;;;4740736;30;20025;-76
2022/11/02 02:00:23;;;;;;;4.00;3.80;;;9.80;99.90;;;;;;4727001;30;20052;-77
2022/11/02 02:03:10;;;;;;;0.95;0.95;;;9.70;99.90;;;;;;4726720;30;20044;-75
2022/11/02 02:05:44;;;;;;;0.10;0.10;;;9.70;99.90;;;;;;4740130;30;20048;-78
2022/11/02 02:08:13;;;;;;;3.97;3.78;;;9.70;99.90;;;;;;4740752;30;20114;-75
2022/11/02 02:10:39;;;;;;;0.10;0.10;;;9.70;99.90;;;;;;4741020;30;20043;-78
2022/11/02 02:13:06;;;;;;;0.03;0.03;;;9.70;99.90;;;;;;4725676;30;20029;-75
2022/11/02 02:16:28;;;;;;;0.10;0.10;;;9.70;99.90;;;;;;4724791;30;20035;-76
2022/11/02 02:18:58;;;;;;;0.10;0.10;;;9.70;99.90;;;;;;4737303;30;20055;-75
2022/11/02 02:21:44;;;;;;;0.10;0.10;;;9.70;99.90;;;;;;4739673;30;20017;-75
2022/11/02 02:24:49;;;;;;;0.00;0.00;;;9.70;99.90;;;;;;4670135;30;20046;-76
2022/11/02 02:27:53;;;;;;;0.10;0.10;;;9.70;99.90;;;;;;4668738;30;20106;-76
2022/11/02 02:30:19;;;;;;;0.10;0.10;;;9.70;99.90;;;;;;4634512;30;20046;-75
2022/11/02 02:33:04;;;;;;;0.10;0.10;;;9.70;99.90;;;;;;4651026;30;20241;-76
2022/11/02 02:36:04;;;;;;;0.08;0.08;;;9.60;99.90;;;;;;4638662;30;20075;-77
2022/11/02 02:38:39;;;;;;;0.10;0.10;;;9.60;99.90;;;;;;4618397;31;20060;-77
2022/11/02 02:41:43;;;;;;;0.00;0.00;;;9.60;99.90;;;;;;4592279;30;20043;-76
2022/11/02 02:44:19;;;;;;;0.10;0.10;;;9.60;99.90;;;;;;4617593;31;20091;-76
2022/11/02 02:46:56;;;;;;;0.00;0.00;;;9.50;99.90;;;;;;4619286;30;20036;-75
2022/11/02 02:49:47;;;;;;;0.10;0.10;;;9.60;99.90;;;;;;4618818;31;20028;-75
2022/11/02 02:52:16;;;;;;;0.10;0.10;;;9.60;99.90;;;;;;4615719;31;20040;-75
2022/11/02 02:54:45;;;;;;;3.03;2.92;;;9.50;99.90;;;;;;4617481;31;20044;-76
2022/11/02 02:57:19;;;;;;;0.82;0.82;;;9.50;99.90;;;;;;4619466;31;20031;-76
2022/11/02 02:59:47;;;;;;;;;;;9.40;99.90;;;;;;4603333;31;20075;-75
2022/11/02 03:02:16;;;;;;;0.10;0.10;;;9.40;99.90;;;;;;4648466;30;19907;-75
2022/11/02 03:04:46;;;;;;;0.10;0.10;;;9.40;99.90;;;;;;4651256;30;20046;-76
2022/11/02 03:07:33;;;;;;;0.10;0.10;;;9.30;99.90;;;;;;4645229;30;20092;-75
2022/11/02 03:10:21;;;;;;;0.00;0.00;;;9.30;99.90;;;;;;4669793;30;20041;-75
2022/11/02 03:13:34;;;;;;;0.10;0.10;;;9.40;99.90;;;;;;4667403;30;20304;-73
2022/11/02 03:16:18;;;;;;;0.00;0.00;;;9.30;99.90;;;;;;4739878;30;20146;-75
2022/11/02 03:18:52;;;;;;;0.10;0.10;;;9.30;99.90;;;;;;4742943;30;20099;-75
2022/11/02 03:21:26;;;;;;;;;;;9.30;99.90;;;;;;4725142;30;20039;-75
2022/11/02 03:24:04;;;;;;;0.10;0.10;;;9.30;99.90;;;;;;4726104;30;19910;-76
2022/11/02 03:26:50;;;;;;;0.10;0.10;;;9.30;99.90;;;;;;4741457;30;20069;-75
2022/11/02 03:29:24;;;;;;;0.03;0.03;;;9.30;99.90;;;;;;4725232;30;20064;-76
2022/11/02 03:32:06;;;;;;;0.10;0.10;;;9.30;99.90;;;;;;4740766;30;20005;-76
2022/11/02 03:34:51;;;;;;;0.10;0.10;;;9.20;99.90;;;;;;4742898;30;20025;-78
2022/11/02 03:37:19;;;;;;;4.57;4.38;;;9.20;99.90;;;;;;4742057;30;20355;-75
2022/11/02 03:39:49;;;;;;;0.10;0.10;;;9.20;99.90;;;;;;4740615;30;20135;-76
2022/11/02 03:42:32;;;;;;;0.10;0.10;;;9.10;99.90;;;;;;4739176;30;20446;-76
2022/11/02 03:45:11;;;;;;;0.10;0.10;;;9.10;99.90;;;;;;4722499;30;20033;-76
2022/11/02 03:47:48;;;;;;;11.88;7.43;;;9.20;99.90;;;;;;4723577;30;20033;-75
2022/11/02 03:50:26;;;;;;;0.10;0.10;;;9.20;99.90;;;;;;4742219;30;20392;-76
2022/11/02 03:53:24;;;;;;;0.10;0.10;;;9.10;99.90;;;;;;4723493;30;20040;-77
2022/11/02 03:56:19;;;;;;;0.00;0.00;;;9.10;99.90;;;;;;4739898;30;20404;-76
2022/11/02 03:58:45;;;;;;;0.00;0.00;;;9.10;99.90;;;;;;4740902;30;20375;-76
2022/11/02 04:01:11;;;;;;;0.10;0.10;;;9.00;99.90;;;;;;4741294;30;20036;-76
2022/11/02 04:03:42;;;;;;;0.10;0.10;;;8.90;99.90;;;;;;4726034;30;20044;-76
2022/11/02 04:06:08;;;;;;;0.05;0.05;;;8.90;99.90;;;;;;4740102;30;20036;-76
2022/11/02 04:08:42;;;;;;;4.47;3.00;;;8.90;99.90;;;;;;4741364;30;20047;-76
2022/11/02 04:19:49;;;;;;;0.00;0.00;;;8.70;99.90;;;;;;4739871;30;20051;-76
2022/11/02 04:25:17;;;;;;;0.08;0.08;;;8.70;99.90;;;;;;4745612;30;20245;-76
2022/11/02 04:27:45;;;;;;;0.00;0.00;;;8.70;99.90;;;;;;4731741;30;20043;-78
2022/11/02 04:30:11;;;;;;;0.08;0.08;;;8.70;99.90;;;;;;4747250;30;20021;-77
2022/11/02 04:35:28;;;;;;;0.10;0.10;;;8.60;99.90;;;;;;4745999;30;20024;-76
2022/11/02 04:40:38;;;;;;;3.85;3.72;;;8.60;99.90;;;;;;4748738;30;20054;-76
2022/11/02 04:43:04;;;;;;;0.10;0.10;;;8.60;99.90;;;;;;4733272;30;20052;-76
2022/11/02 04:45:30;;;;;;;0.00;0.00;;;8.60;99.90;;;;;;4748205;30;20037;-77
2022/11/02 04:48:00;;;;;;;0.03;0.03;;;8.60;99.90;;;;;;4746542;30;20086;-76
2022/11/02 04:50:27;;;;;;;0.10;0.10;;;8.70;99.90;;;;;;4727395;30;20047;-76
2022/11/02 04:52:58;;;;;;;0.10;0.10;;;8.70;99.90;;;;;;4742358;30;20041;-76
2022/11/02 04:55:24;;;;;;;0.10;0.10;;;8.70;99.90;;;;;;4721054;30;20063;-76
2022/11/02 04:57:50;;;;;;;0.10;0.10;;;8.70;99.90;;;;;;4708847;30;20129;-77
2022/11/02 05:00:16;;;;;;;37.72;31.88;;;8.70;99.90;;;;;;4738253;30;20151;-78
2022/11/02 05:02:44;;;;;;;0.10;0.10;;;8.70;99.90;;;;;;4722789;30;20025;-76
2022/11/02 05:05:11;;;;;;;0.10;0.10;;;8.20;99.90;;;;;;4721614;30;20112;-76
2022/11/02 05:07:37;;;;;;;0.10;0.10;;;8.70;99.90;;;;;;4737270;30;20358;-77
2022/11/02 05:10:03;;;;;;;0.10;0.10;;;8.60;99.90;;;;;;4722578;30;20071;-75
2022/11/02 05:12:28;;;;;;;0.00;0.00;;;8.60;99.90;;;;;;4737943;30;20041;-76
2022/11/02 05:14:54;;;;;;;0.10;0.10;;;8.60;99.90;;;;;;4734985;30;20035;-75
2022/11/02 05:17:20;;;;;;;0.10;0.10;;;8.50;99.90;;;;;;4732831;30;20707;-77
2022/11/02 05:19:45;;;;;;;0.43;0.43;;;8.50;99.90;;;;;;4725140;30;20048;-77
2022/11/02 05:22:12;;;;;;;0.10;0.10;;;8.50;99.90;;;;;;4740159;30;20032;-76
2022/11/02 05:24:38;;;;;;;0.00;0.00;;;8.50;99.90;;;;;;4747072;30;20025;-76
2022/11/02 05:27:04;;;;;;;0.08;0.08;;;8.50;99.90;;;;;;4746131;30;20035;-76
2022/11/02 05:29:33;;;;;;;3.30;3.20;;;8.50;99.90;;;;;;4747909;30;20029;-76
2022/11/02 05:32:06;;;;;;;0.10;0.10;;;8.50;99.90;;;;;;4743887;30;20029;-76
2022/11/02 05:34:32;;;;;;;0.10;0.10;;;8.60;99.90;;;;;;4739986;30;20025;-77
2022/11/02 05:36:57;;;;;;;0.10;0.10;;;8.60;99.90;;;;;;4740075;30;20087;-76
2022/11/02 05:39:23;;;;;;;0.10;0.10;;;8.60;99.90;;;;;;4741775;30;20040;-76
2022/11/02 05:41:52;;;;;;;0.00;0.00;;;8.60;99.90;;;;;;4738066;30;20264;-75
2022/11/02 05:44:21;;;;;;;0.00;0.00;;;8.60;99.90;;;;;;4744747;30;20035;-76
2022/11/02 05:46:47;;;;;;;0.10;0.10;;;8.70;99.90;;;;;;4738781;30;20028;-75
2022/11/02 05:49:13;;;;;;;0.10;0.10;;;8.70;99.90;;;;;;4736179;30;20036;-76
2022/11/02 05:51:40;;;;;;;0.10;0.10;;;8.70;99.90;;;;;;4737706;30;20032;-76
2022/11/02 05:54:07;;;;;;;0.00;0.00;;;8.70;99.90;;;;;;4741111;30;20017;-76
2022/11/02 05:56:37;;;;;;;0.00;0.00;;;8.80;99.90;;;;;;4743052;30;20036;-75
2022/11/02 05:59:03;;;;;;;0.10;0.10;;;8.90;99.90;;;;;;4740084;30;20100;-76
2022/11/02 06:01:29;;;;;;;0.10;0.10;;;8.90;99.90;;;;;;4741905;30;20033;-76
2022/11/02 06:03:56;;;;;;;0.10;0.10;;;9.00;99.90;;;;;;4751154;30;20020;-76
2022/11/02 06:06:25;;;;;;;0.10;0.10;;;9.10;99.90;;;;;;4771744;30;20036;-76
2022/11/02 06:08:51;;;;;;;0.15;0.15;;;9.20;99.90;;;;;;4763972;30;20029;-76
2022/11/02 06:11:17;;;;;;;0.00;0.00;;;9.30;99.90;;;;;;4763362;30;20028;-76
2022/11/02 06:13:42;;;;;;;0.10;0.10;;;9.30;99.90;;;;;;4765793;30;20130;-75
2022/11/02 06:16:11;;;;;;;0.20;0.20;;;8.30;99.90;;;;;;4765780;30;20024;-81
2022/11/02 06:18:38;;;;;;;0.00;0.00;;;9.60;99.90;;;;;;4763160;30;20048;-77
2022/11/02 06:21:10;;;;;;;0.10;0.10;;;9.70;99.90;;;;;;4760419;30;20028;-77
2022/11/02 06:23:38;;;;;;;0.10;0.10;;;9.80;99.90;;;;;;4764340;30;20028;-77
2022/11/02 06:26:10;;;;;;;0.08;0.08;;;9.90;99.90;;;;;;4763812;30;20048;-77
2022/11/02 06:28:40;;;;;;;0.98;0.98;;;10.00;99.90;;;;;;4762406;30;20058;-77
2022/11/02 06:31:06;;;;;;;0.10;0.10;;;10.20;99.90;;;;;;4755325;30;20059;-78
2022/11/02 06:33:31;;;;;;;0.17;0.17;;;10.30;99.90;;;;;;4735443;30;20016;-77
2022/11/02 06:35:58;;;;;;;0.10;0.10;;;10.40;99.90;;;;;;4737404;30;20054;-78
2022/11/02 06:38:26;;;;;;;0.10;0.10;;;10.50;99.90;;;;;;4734917;30;20061;-77
2022/11/02 06:41:05;;;;;;;0.10;0.10;;;10.60;99.90;;;;;;4753577;30;20090;-77
2022/11/02 06:43:32;;;;;;;0.10;0.10;;;10.70;99.90;;;;;;4761148;30;20032;-76
2022/11/02 06:45:58;;;;;;;11.40;10.27;;;10.80;99.90;;;;;;4761147;30;20076;-77
2022/11/02 06:48:28;;;;;;;0.20;0.20;;;11.00;99.90;;;;;;4762097;29;20028;-77
2022/11/02 06:50:56;;;;;;;0.10;0.10;;;11.20;99.90;;;;;;4757814;30;20031;-78
2022/11/02 06:53:22;;;;;;;0.15;0.15;;;11.30;99.90;;;;;;4756315;29;20009;-77
2022/11/02 06:55:58;;;;;;;0.10;0.10;;;11.40;99.90;;;;;;4758513;30;20048;-77
2022/11/02 06:58:25;;;;;;;0.10;0.10;;;11.50;99.90;;;;;;4736939;30;20339;-76
2022/11/02 07:00:57;;;;;;;0.65;0.65;;;11.80;99.90;;;;;;4734251;30;20640;-76
2022/11/02 07:03:23;;;;;;;1.73;1.65;;;11.80;99.90;;;;;;4730398;30;20090;-76
2022/11/02 07:05:53;;;;;;;0.20;0.20;;;12.00;99.90;;;;;;4731503;30;20040;-76
2022/11/02 07:08:20;;;;;;;0.47;0.47;;;12.10;99.90;;;;;;4750836;30;20022;-77
2022/11/02 07:10:46;;;;;;;0.40;0.40;;;12.20;99.90;;;;;;4751937;30;20024;-76
2022/11/02 07:13:12;;;;;;;0.20;0.20;;;12.40;99.90;;;;;;4738329;30;20024;-77
2022/11/02 07:15:38;;;;;;;0.20;0.20;;;12.50;99.90;;;;;;4735626;30;20037;-77
2022/11/02 07:18:07;;;;;;;1.65;1.55;;;12.60;99.90;;;;;;4729161;30;20054;-76
2022/11/02 07:20:33;;;;;;;0.10;0.10;;;12.70;99.90;;;;;;4755738;30;20106;-77
2022/11/02 07:23:00;;;;;;;0.38;0.38;;;12.90;99.90;;;;;;4748526;30;20032;-77
2022/11/02 07:25:29;;;;;;;2.05;1.95;;;13.00;99.90;;;;;;4744453;30;20093;-75
2022/11/02 07:28:01;;;;;;;0.80;0.80;;;13.00;99.90;;;;;;4727940;30;20024;-77
2022/11/02 07:30:30;;;;;;;0.47;0.47;;;13.10;99.90;;;;;;4747471;30;20027;-77
2022/11/02 07:32:56;;;;;;;0.10;0.10;;;13.00;99.90;;;;;;4744743;30;20082;-77
2022/11/02 07:35:22;;;;;;;0.20;0.20;;;13.20;99.90;;;;;;4751237;30;20037;-76
2022/11/02 07:38:03;;;;;;;0.60;0.60;;;13.30;99.90;;;;;;4751937;30;20032;-77
2022/11/02 07:40:30;;;;;;;0.17;0.17;;;13.30;99.90;;;;;;4749417;30;20039;-76
2022/11/02 07:42:57;;;;;;;0.20;0.20;;;13.40;99.90;;;;;;4743488;30;20021;-76
2022/11/02 07:45:23;;;;;;;0.35;0.35;;;13.50;99.90;;;;;;4747190;30;20025;-77
2022/11/02 07:47:49;;;;;;;0.30;0.30;;;13.50;99.90;;;;;;4748251;30;20521;-77
2022/11/02 07:50:18;;;;;;;0.20;0.20;;;13.60;99.90;;;;;;4729611;30;20716;-76
2022/11/02 07:52:46;;;;;;;0.20;0.20;;;13.70;99.90;;;;;;4744020;30;20024;-76
2022/11/02 07:55:16;;;;;;;0.13;0.13;;;13.90;99.90;;;;;;4731790;30;20546;-75
2022/11/02 07:57:42;;;;;;;2.53;2.38;;;13.90;99.90;;;;;;4740962;30;20025;-75
2022/11/02 08:00:17;;;;;;;0.10;0.10;;;14.10;99.90;;;;;;4746560;30;20046;-76
2022/11/02 08:02:43;;;;;;;15.68;5.00;;;14.60;99.90;;;;;;4746641;30;20473;-79
2022/11/02 08:05:08;;;;;;;0.30;0.30;;;14.30;99.90;;;;;;4748334;30;20036;-76
2022/11/02 08:07:34;;;;;;;0.20;0.20;;;14.50;99.90;;;;;;4744659;30;20021;-75
2022/11/02 08:10:00;;;;;;;0.20;0.20;;;14.60;99.90;;;;;;4744668;30;20701;-76
2022/11/02 08:12:26;;;;;;;0.15;0.15;;;14.70;99.90;;;;;;4747001;30;20067;-74
2022/11/02 08:14:52;;;;;;;0.88;0.88;;;14.60;99.90;;;;;;4752217;30;20524;-76
2022/11/02 08:17:18;;;;;;;0.80;0.80;;;14.60;99.90;;;;;;4730043;30;20093;-76
2022/11/02 08:19:53;;;;;;;1.67;1.58;;;14.70;99.80;;;;;;4753696;30;20044;-78
2022/11/02 08:22:19;;;;;;;0.20;0.20;;;14.60;99.90;;;;;;4749226;30;20044;-75
2022/11/02 08:24:44;;;;;;;0.40;0.40;;;14.60;99.90;;;;;;4751285;30;20024;-78
2022/11/02 08:27:10;;;;;;;0.38;0.38;;;14.80;99.60;;;;;;4731848;30;20072;-79
2022/11/02 08:29:36;;;;;;;0.20;0.20;;;14.70;99.60;;;;;;4748516;30;20103;-79
2022/11/02 08:32:02;;;;;;;0.50;0.50;;;14.80;99.10;;;;;;4747532;30;20026;-74
2022/11/02 08:34:28;;;;;;;4.85;4.70;;;15.00;99.30;;;;;;4754121;30;20068;-77
2022/11/02 08:36:54;;;;;;;0.20;0.20;;;15.10;98.90;;;;;;4739099;30;20047;-76
2022/11/02 08:39:22;;;;;;;1.15;0.80;;;15.20;98.80;;;;;;4756520;30;20036;-77
2022/11/02 08:41:48;;;;;;;1.75;1.65;;;15.20;98.70;;;;;;4752935;30;20032;-75
2022/11/02 08:44:14;;;;;;;1.17;1.13;;;15.10;98.50;;;;;;4755548;30;20060;-80
2022/11/02 08:46:42;;;;;;;0.43;0.43;;;15.20;98.20;;;;;;4746987;30;20111;-76
2022/11/02 08:49:09;;;;;;;0.35;0.35;;;15.20;98.10;;;;;;4726138;30;20024;-77
2022/11/02 08:51:35;;;;;;;11.80;4.53;;;15.10;98.30;;;;;;4743298;30;20054;-89
2022/11/02 08:54:00;;;;;;;1.17;1.17;;;15.20;98.90;;;;;;4744481;30;20513;-77
2022/11/02 08:56:27;;;;;;;0.45;0.45;;;15.40;98.40;;;;;;4742813;30;20093;-76
2022/11/02 08:58:53;;;;;;;0.10;0.10;;;15.40;97.90;;;;;;4741372;30;20651;-76
2022/11/02 09:01:18;;;;;;;1.17;1.13;;;15.50;98.10;;;;;;4724621;30;20040;-82
2022/11/02 09:03:44;;;;;;;0.30;0.30;;;15.40;98.20;;;;;;4739766;30;20028;-76
2022/11/02 09:06:13;;;;;;;0.40;0.40;;;15.50;98.20;;;;;;4742771;30;20055;-76
2022/11/02 09:08:39;;;;;;;1.02;1.02;;;15.50;98.10;;;;;;4729939;30;20085;-76
2022/11/02 09:11:05;;;;;;;3.42;3.22;;;15.50;98.10;;;;;;4745722;30;20024;-75
2022/11/02 09:13:32;;;;;;;2.13;1.33;;;15.60;98.10;;;;;;4746982;30;20099;-77
2022/11/02 09:15:59;;;;;;;3.53;2.08;;;15.60;97.90;;;;;;4737841;24;20060;-77
2022/11/02 09:18:26;;;;;;;2.45;2.28;;;16.20;97.80;;;;;;4727963;30;20083;-75
2022/11/02 09:20:52;;;;;;;0.43;0.43;;;15.70;97.80;;;;;;4726865;30;20048;-80
2022/11/02 09:23:19;;;;;;;1.60;1.55;;;15.80;97.80;;;;;;4707663;30;20029;-86
2022/11/02 09:25:48;;;;;;;2.10;2.00;;;15.80;97.80;;;;;;4709804;30;20043;-78
2022/11/02 09:28:14;;;;;;;1.85;1.75;;;15.80;97.70;;;;;;4711731;30;20021;-74
2022/11/02 09:30:40;;;;;;;0.10;0.10;;;15.90;97.60;;;;;;4724657;30;20686;-78
2022/11/02 09:33:07;;;;;;;14.00;4.85;;;16.00;97.30;;;;;;4726537;30;20043;-75
2022/11/02 09:35:36;;;;;;;0.40;0.40;;;16.10;97.00;;;;;;4723583;30;20108;-76
2022/11/02 09:38:02;;;;;;;3.53;2.65;;;16.10;96.50;;;;;;4725213;30;20021;-76
2022/11/02 09:40:35;;;;;;;1.85;1.75;;;16.20;96.60;;;;;;4726994;30;20679;-76
2022/11/02 09:43:07;;;;;;;0.80;0.80;;;16.30;96.60;;;;;;4727256;30;20063;-75
2022/11/02 09:45:48;;;;;;;0.82;0.80;;;16.30;96.50;;;;;;4726351;30;20061;-80
2022/11/02 09:48:20;;;;;;;4.20;1.95;;;16.50;96.50;;;;;;4727969;30;20028;-76
2022/11/02 09:50:58;;;;;;;10.32;3.88;;;16.60;96.40;;;;;;4726318;30;20088;-77
2022/11/02 09:53:32;;;;;;;0.40;0.40;;;16.80;96.40;;;;;;4726867;30;20061;-75
2022/11/02 09:56:01;;;;;;;6.07;5.63;;;16.90;95.70;;;;;;4713545;30;20115;-75
2022/11/02 09:58:34;;;;;;;0.20;0.20;;;17.00;95.00;;;;;;4727421;30;20087;-76
2022/11/02 10:01:10;;;;;;;1.85;1.75;;;17.10;95.10;;;;;;4731060;30;20029;-75
2022/11/02 10:03:47;;;;;;;3.90;1.55;;;17.10;95.20;;;;;;4727988;30;20016;-77
2022/11/02 10:06:20;;;;;;;0.28;0.28;;;17.10;95.00;;;;;;4728892;30;20071;-75
2022/11/02 10:08:51;;;;;;;1.63;1.55;;;17.20;94.90;;;;;;4723251;30;20029;-90
2022/11/02 10:11:38;;;;;;;0.30;0.30;;;17.20;94.20;;;;;;4732337;30;20090;-78
2022/11/02 10:14:26;;;;;;;0.52;0.52;;;17.30;94.20;;;;;;4733597;30;20025;-77
2022/11/02 10:16:58;;;;;;;2.13;2.03;;;17.50;94.10;;;;;;4719029;30;20021;-78
2022/11/02 10:19:27;;;;;;;3.05;2.83;;;17.50;93.70;;;;;;4717205;30;20642;-82
2022/11/02 10:21:57;;;;;;;1.15;0.90;;;17.70;93.60;;;;;;4713886;30;20035;-76
2022/11/02 10:24:50;;;;;;;1.83;1.73;;;17.90;93.30;;;;;;4738169;30;20088;-76
2022/11/02 10:27:28;;;;;;;0.82;0.80;;;18.50;93.10;;;;;;4736457;30;20204;-77
2022/11/02 10:30:10;;;;;;;2.03;1.92;;;18.30;92.70;;;;;;4733621;30;20043;-76
2022/11/02 10:32:39;;;;;;;0.85;0.85;;;18.50;92.00;;;;;;4720519;30;20029;-77
2022/11/02 10:35:19;;;;;;;1.02;1.02;;;19.90;92.20;;;;;;4738125;30;20036;-76
2022/11/02 10:38:18;;;;;;;3.47;2.25;;;18.80;91.90;;;;;;4735172;30;20012;-76
2022/11/02 10:40:52;;;;;;;22.05;3.70;;;18.90;91.40;;;;;;4661023;30;20383;-76
2022/11/02 10:43:31;;;;;;;0.95;0.93;;;18.80;91.10;;;;;;4661872;30;20062;-96
2022/11/02 10:46:17;;;;;;;0.30;0.30;;;18.90;90.90;;;;;;4649435;30;20030;-75
2022/11/02 10:48:42;;;;;;;0.65;0.65;;;18.90;89.90;;;;;;4663005;30;20034;-87
2022/11/02 10:51:11;;;;;;;1.85;1.75;;;18.90;89.30;;;;;;4656644;30;20042;-76
2022/11/02 10:53:47;;;;;;;0.90;0.90;;;18.90;89.10;;;;;;4656533;30;20039;-84
2022/11/02 10:56:28;;;;;;;1.35;1.25;;;18.90;88.90;;;;;;4629669;30;20124;-79
2022/11/02 10:59:09;;;;;;;0.30;0.30;;;19.00;87.60;;;;;;4646020;30;20051;-96
2022/11/02 11:01:35;;;;;;;52.40;10.07;;;19.10;87.80;;;;;;4659874;30;20397;-76
2022/11/02 11:04:01;;;;;;;0.85;0.85;;;19.10;87.00;;;;;;4644502;30;20249;-95
2022/11/02 11:06:36;;;;;;;3.75;3.42;;;19.20;86.40;;;;;;4661333;30;20077;-77
2022/11/02 11:09:20;;;;;;;0.30;0.30;;;19.40;86.10;;;;;;4666328;30;20026;-79
2022/11/02 11:12:12;;;;;;;8.43;2.58;;;19.40;85.30;;;;;;4651636;30;20101;-92
2022/11/02 11:14:54;;;;;;;5.60;5.25;;;19.60;84.60;;;;;;4665355;30;20081;-83
2022/11/02 11:17:23;;;;;;;7.72;7.28;;;19.80;84.70;;;;;;4686469;30;20239;-88
2022/11/02 11:19:51;;;;;;;2.72;2.60;;;20.00;84.70;;;;;;4717481;30;20075;-89
2022/11/02 11:22:27;;;;;;;2.47;1.60;;;20.30;83.80;;;;;;4730955;30;20021;-76
2022/11/02 11:25:24;;;;;;;0.30;0.30;;;20.50;84.50;;;;;;4729244;30;20329;-78
2022/11/02 11:27:57;;;;;;;8.20;2.38;;;20.80;81.60;;;;;;4727738;30;20088;-76
2022/11/02 11:30:32;;;;;;;3.47;3.13;;;21.00;82.10;;;;;;4723318;30;20143;-79
2022/11/02 11:33:00;;;;;;;0.20;0.20;;;21.20;80.10;;;;;;4724909;30;20016;-79
2022/11/02 11:35:48;;;;;;;0.80;0.80;;;21.40;79.50;;;;;;4736604;30;20048;-78
2022/11/02 11:38:20;;;;;;;0.75;0.75;;;21.50;78.30;;;;;;4733328;30;20337;-77
2022/11/02 11:40:52;;;;;;;0.10;0.10;;;21.90;77.70;;;;;;4696747;30;20048;-81
2022/11/02 11:43:20;;;;;;;3.85;3.70;;;22.10;76.30;;;;;;4725468;30;20349;-75
2022/11/02 11:45:54;;;;;;;0.20;0.20;;;22.20;75.40;;;;;;4729351;30;20036;-79
2022/11/02 11:48:35;;;;;;;0.32;0.32;;;22.30;74.00;;;;;;4724837;30;20051;-78
2022/11/02 11:51:02;;;;;;;1.23;1.23;;;22.10;73.40;;;;;;4725468;30;20033;-78
2022/11/02 11:53:29;;;;;;;10.68;3.00;;;21.90;74.00;;;;;;4727365;30;20517;-78
2022/11/02 11:55:59;;;;;;;0.40;0.40;;;21.80;74.00;;;;;;4726220;30;20037;-78
2022/11/02 11:58:30;;;;;;;7.03;4.53;;;21.80;74.10;;;;;;4722138;30;20021;-75
2022/11/02 12:01:05;;;;;;;1.13;1.08;;;21.70;73.80;;;;;;4719908;30;20068;-77
2022/11/02 12:03:31;;;;;;;0.10;0.10;;;21.70;72.90;;;;;;4704422;30;20209;-80
2022/11/02 12:06:22;;;;;;;0.15;0.15;;;21.60;72.60;;;;;;4719626;30;20119;-76
2022/11/02 12:09:42;;;;;;;4.03;1.20;;;21.70;72.80;;;;;;4704599;30;20336;-80
2022/11/02 12:12:37;;;;;;;10.23;5.95;;;21.70;73.30;;;;;;4693578;30;20036;-76
2022/11/02 12:15:30;;;;;;;1.85;1.80;;;23.60;74.60;;;;;;4729193;30;20455;-86
2022/11/02 12:18:21;;;;;;;6.43;4.55;;;22.20;72.10;;;;;;4733153;30;20032;-79
2022/11/02 12:21:21;;;;;;;3.63;3.30;;;22.10;71.70;;;;;;4712151;30;20114;-81
2022/11/02 12:24:17;;;;;;;3.15;3.05;;;22.40;71.70;;;;;;4708471;30;20369;-79
2022/11/02 12:27:23;;;;;;;12.48;2.58;;;22.40;71.60;;;;;;4722533;30;20065;-82
2022/11/02 12:30:03;;;;;;;4.85;4.50;;;22.60;72.10;;;;;;4722688;30;20076;-77
2022/11/02 12:32:49;;;;;;;1.58;1.50;;;22.90;71.20;;;;;;4722032;30;20329;-81
2022/11/02 12:35:39;;;;;;;0.32;0.32;;;22.90;70.30;;;;;;4717550;30;20045;-82
2022/11/02 12:38:35;;;;;;;3.83;3.53;;;23.00;69.50;;;;;;4728725;30;20029;-78
2022/11/02 12:41:07;;;;;;;4.82;4.20;;;22.90;68.90;;;;;;4705975;30;20417;-84
2022/11/02 12:43:46;;;;;;;0.65;0.65;;;23.00;69.20;;;;;;4711104;30;20028;-81
2022/11/02 12:46:15;;;;;;;0.82;0.80;;;23.30;68.30;;;;;;4734034;30;20039;-79
2022/11/02 12:48:56;;;;;;;12.77;11.98;;;23.40;67.70;;;;;;4731373;30;20025;-77
2022/11/02 12:51:48;;;;;;;3.50;3.30;;;23.70;66.70;;;;;;4731660;30;20318;-77
2022/11/02 12:54:32;;;;;;;1.88;1.75;;;23.90;66.70;;;;;;4734169;30;20075;-82
2022/11/02 12:56:57;;;;;;;2.55;1.45;;;23.90;66.00;;;;;;4724681;30;20090;-85
2022/11/02 12:59:35;;;;;;;5.28;4.88;;;23.70;64.50;;;;;;4728773;30;20492;-86
2022/11/02 13:02:17;;;;;;;5.45;4.93;;;23.70;65.40;;;;;;4736992;30;20066;-85
2022/11/02 13:04:59;;;;;;;0.10;0.10;;;24.00;65.70;;;;;;4732179;30;20036;-77
2022/11/02 13:07:45;;;;;;;4.00;3.03;;;23.80;65.20;;;;;;4723685;30;20101;-80
2022/11/02 13:10:34;;;;;;;0.30;0.30;;;24.10;64.50;;;;;;4726704;30;20017;-77
2022/11/02 13:13:16;;;;;;;0.75;0.70;;;24.40;63.40;;;;;;4719047;30;20067;-77
2022/11/02 13:15:45;;;;;;;1.30;1.23;;;24.30;63.60;;;;;;4732729;30;20686;-96
2022/11/02 13:18:48;;;;;;;2.17;2.08;;;24.30;63.70;;;;;;4740797;30;20021;-77
2022/11/02 13:21:25;;;;;;;1.75;1.55;;;24.30;63.80;;;;;;4720825;30;20131;-76
2022/11/02 13:24:06;;;;;;;1.45;1.35;;;24.20;62.90;;;;;;4738219;30;20104;-77
2022/11/02 13:26:40;;;;;;;14.93;3.35;;;23.60;63.80;;;;;;4731799;24;20064;-76
2022/11/02 13:29:59;;;;;;;0.17;0.17;;;24.20;62.10;;;;;;4749547;24;21466;-76
2022/11/02 13:32:53;;;;;;;0.50;0.50;;;24.20;63.40;;;;;;4720011;30;20049;-76
2022/11/02 13:35:23;;;;;;;4.65;2.20;;;22.80;61.50;;;;;;4745689;30;20038;-76
2022/11/02 13:37:57;;;;;;;2.83;2.63;;;24.00;62.10;;;;;;4748795;30;20056;-96